sensor_id;sensor_type;location;lat;lon;timestamp;temperature;humidity
40059;SHT31;25763;49.972;8.568;2023-07-31T00:01:04;18.52;69.87
40059;SHT31;25763;49.972;8.568;2023-07-31T00:03:30;18.51;69.92
40059;SHT31;25763;49.972;8.568;2023-07-31T00:05:55;18.52;69.87
40059;SHT31;25763;49.972;8.568;2023-07-31T00:08:20;18.51;69.99
40059;SHT31;25763;49.972;8.568;2023-07-31T00:10:46;18.50;70.17
40059;SHT31;25763;49.972;8.568;2023-07-31T00:13:11;18.45;69.85
40059;SHT31;25763;49.972;8.568;2023-07-31T00:15:36;18.50;69.74
40059;SHT31;25763;49.972;8.568;2023-07-31T00:18:02;18.51;70.11
40059;SHT31;25763;49.972;8.568;2023-07-31T00:20:27;18.47;69.90
40059;SHT31;25763;49.972;8.568;2023-07-31T00:22:53;18.50;69.79
40059;SHT31;25763;49.972;8.568;2023-07-31T00:25:18;18.51;69.66
40059;SHT31;25763;49.972;8.568;2023-07-31T00:27:43;18.48;69.29
40059;SHT31;25763;49.972;8.568;2023-07-31T00:30:11;18.52;69.36
40059;SHT31;25763;49.972;8.568;2023-07-31T00:32:37;18.50;69.15
40059;SHT31;25763;49.972;8.568;2023-07-31T00:35:02;18.55;69.20
40059;SHT31;25763;49.972;8.568;2023-07-31T00:37:27;18.54;68.82
40059;SHT31;25763;49.972;8.568;2023-07-31T00:39:53;18.55;68.77
40059;SHT31;25763;49.972;8.568;2023-07-31T00:42:19;18.58;68.97
40059;SHT31;25763;49.972;8.568;2023-07-31T00:44:44;18.59;68.62
40059;SHT31;25763;49.972;8.568;2023-07-31T00:47:10;18.54;68.54
40059;SHT31;25763;49.972;8.568;2023-07-31T00:49:35;18.54;68.97
40059;SHT31;25763;49.972;8.568;2023-07-31T00:52:00;18.61;68.77
40059;SHT31;25763;49.972;8.568;2023-07-31T00:54:27;18.57;68.73
40059;SHT31;25763;49.972;8.568;2023-07-31T00:56:54;18.58;68.95
40059;SHT31;25763;49.972;8.568;2023-07-31T00:59:19;18.55;68.95
40059;SHT31;25763;49.972;8.568;2023-07-31T01:01:45;18.57;68.96
40059;SHT31;25763;49.972;8.568;2023-07-31T01:04:11;18.54;68.86
40059;SHT31;25763;49.972;8.568;2023-07-31T01:09:29;18.55;68.58
40059;SHT31;25763;49.972;8.568;2023-07-31T01:11:57;18.52;68.41
40059;SHT31;25763;49.972;8.568;2023-07-31T01:14:25;18.51;68.51
40059;SHT31;25763;49.972;8.568;2023-07-31T01:16:50;18.58;68.77
40059;SHT31;25763;49.972;8.568;2023-07-31T01:19:18;18.55;68.59
40059;SHT31;25763;49.972;8.568;2023-07-31T01:21:58;18.57;68.22
40059;SHT31;25763;49.972;8.568;2023-07-31T01:27:21;18.55;67.86
40059;SHT31;25763;49.972;8.568;2023-07-31T01:30:06;18.58;67.96
40059;SHT31;25763;49.972;8.568;2023-07-31T01:32:36;18.58;67.70
40059;SHT31;25763;49.972;8.568;2023-07-31T01:35:04;18.59;67.56
40059;SHT31;25763;49.972;8.568;2023-07-31T01:37:29;18.61;67.55
40059;SHT31;25763;49.972;8.568;2023-07-31T01:39:55;18.61;67.15
40059;SHT31;25763;49.972;8.568;2023-07-31T01:42:20;18.61;67.12
40059;SHT31;25763;49.972;8.568;2023-07-31T01:44:46;18.64;66.81
40059;SHT31;25763;49.972;8.568;2023-07-31T01:47:11;18.65;67.25
40059;SHT31;25763;49.972;8.568;2023-07-31T01:49:36;18.62;66.74
40059;SHT31;25763;49.972;8.568;2023-07-31T01:52:02;18.64;66.48
40059;SHT31;25763;49.972;8.568;2023-07-31T01:54:27;18.68;66.69
40059;SHT31;25763;49.972;8.568;2023-07-31T01:56:52;18.69;66.77
40059;SHT31;25763;49.972;8.568;2023-07-31T01:59:18;18.68;66.82
40059;SHT31;25763;49.972;8.568;2023-07-31T02:01:43;18.68;66.53
40059;SHT31;25763;49.972;8.568;2023-07-31T02:04:09;18.69;66.31
40059;SHT31;25763;49.972;8.568;2023-07-31T02:06:34;18.68;65.92
40059;SHT31;25763;49.972;8.568;2023-07-31T02:09:00;18.69;66.92
40059;SHT31;25763;49.972;8.568;2023-07-31T02:11:25;18.69;66.74
40059;SHT31;25763;49.972;8.568;2023-07-31T02:13:50;18.71;66.70
40059;SHT31;25763;49.972;8.568;2023-07-31T02:16:15;18.68;66.62
40059;SHT31;25763;49.972;8.568;2023-07-31T02:18:41;18.68;66.47
40059;SHT31;25763;49.972;8.568;2023-07-31T02:21:09;18.67;66.68
40059;SHT31;25763;49.972;8.568;2023-07-31T02:23:35;18.69;66.53
40059;SHT31;25763;49.972;8.568;2023-07-31T02:26:00;18.69;66.09
40059;SHT31;25763;49.972;8.568;2023-07-31T02:28:25;18.72;66.63
40059;SHT31;25763;49.972;8.568;2023-07-31T02:30:51;18.72;66.45
40059;SHT31;25763;49.972;8.568;2023-07-31T02:33:17;18.69;66.45
40059;SHT31;25763;49.972;8.568;2023-07-31T02:35:42;18.71;65.97
40059;SHT31;25763;49.972;8.568;2023-07-31T02:38:08;18.71;66.36
40059;SHT31;25763;49.972;8.568;2023-07-31T02:40:33;18.72;66.44
40059;SHT31;25763;49.972;8.568;2023-07-31T02:42:59;18.72;66.32
40059;SHT31;25763;49.972;8.568;2023-07-31T02:45:24;18.68;66.30
40059;SHT31;25763;49.972;8.568;2023-07-31T02:47:49;18.73;66.62
40059;SHT31;25763;49.972;8.568;2023-07-31T02:50:15;18.72;66.92
40059;SHT31;25763;49.972;8.568;2023-07-31T02:52:40;18.68;66.68
40059;SHT31;25763;49.972;8.568;2023-07-31T02:55:06;18.69;66.58
40059;SHT31;25763;49.972;8.568;2023-07-31T02:57:31;18.67;66.39
40059;SHT31;25763;49.972;8.568;2023-07-31T02:59:57;18.69;67.04
40059;SHT31;25763;49.972;8.568;2023-07-31T03:02:22;18.68;67.08
40059;SHT31;25763;49.972;8.568;2023-07-31T03:04:47;18.67;67.10
40059;SHT31;25763;49.972;8.568;2023-07-31T03:07:13;18.65;66.75
40059;SHT31;25763;49.972;8.568;2023-07-31T03:09:38;18.67;67.14
40059;SHT31;25763;49.972;8.568;2023-07-31T03:12:04;18.67;66.96
40059;SHT31;25763;49.972;8.568;2023-07-31T03:14:29;18.64;67.17
40059;SHT31;25763;49.972;8.568;2023-07-31T03:16:54;18.61;67.23
40059;SHT31;25763;49.972;8.568;2023-07-31T03:19:20;18.58;67.05
40059;SHT31;25763;49.972;8.568;2023-07-31T03:21:45;18.58;67.34
40059;SHT31;25763;49.972;8.568;2023-07-31T03:24:11;18.52;67.15
40059;SHT31;25763;49.972;8.568;2023-07-31T03:26:38;18.55;67.58
40059;SHT31;25763;49.972;8.568;2023-07-31T03:29:06;18.54;67.67
40059;SHT31;25763;49.972;8.568;2023-07-31T03:31:31;18.54;68.03
40059;SHT31;25763;49.972;8.568;2023-07-31T03:33:57;18.50;68.08
40059;SHT31;25763;49.972;8.568;2023-07-31T03:36:22;18.48;68.28
40059;SHT31;25763;49.972;8.568;2023-07-31T03:38:48;18.47;68.47
40059;SHT31;25763;49.972;8.568;2023-07-31T03:41:13;18.47;68.96
40059;SHT31;25763;49.972;8.568;2023-07-31T03:43:38;18.43;68.92
40059;SHT31;25763;49.972;8.568;2023-07-31T03:46:04;18.40;68.99
40059;SHT31;25763;49.972;8.568;2023-07-31T03:48:29;18.35;69.23
40059;SHT31;25763;49.972;8.568;2023-07-31T03:50:55;18.40;69.25
40059;SHT31;25763;49.972;8.568;2023-07-31T03:53:20;18.33;69.16
40059;SHT31;25763;49.972;8.568;2023-07-31T03:55:46;18.30;69.28
40059;SHT31;25763;49.972;8.568;2023-07-31T03:58:11;18.27;69.57
40059;SHT31;25763;49.972;8.568;2023-07-31T04:00:36;18.28;69.75
40059;SHT31;25763;49.972;8.568;2023-07-31T04:03:02;18.24;70.15
40059;SHT31;25763;49.972;8.568;2023-07-31T04:05:30;18.18;70.32
40059;SHT31;25763;49.972;8.568;2023-07-31T04:07:55;18.20;70.52
40059;SHT31;25763;49.972;8.568;2023-07-31T04:10:20;18.17;70.55
40059;SHT31;25763;49.972;8.568;2023-07-31T04:12:45;18.13;70.85
40059;SHT31;25763;49.972;8.568;2023-07-31T04:15:11;18.10;71.00
40059;SHT31;25763;49.972;8.568;2023-07-31T04:17:36;18.05;70.57
40059;SHT31;25763;49.972;8.568;2023-07-31T04:20:02;18.08;70.66
40059;SHT31;25763;49.972;8.568;2023-07-31T04:22:27;18.12;70.87
40059;SHT31;25763;49.972;8.568;2023-07-31T04:24:53;18.10;70.89
40059;SHT31;25763;49.972;8.568;2023-07-31T04:27:18;18.10;71.00
40059;SHT31;25763;49.972;8.568;2023-07-31T04:29:43;18.06;70.77
40059;SHT31;25763;49.972;8.568;2023-07-31T04:32:11;18.08;70.80
40059;SHT31;25763;49.972;8.568;2023-07-31T04:34:36;18.10;71.11
40059;SHT31;25763;49.972;8.568;2023-07-31T04:37:01;18.12;70.97
40059;SHT31;25763;49.972;8.568;2023-07-31T04:39:27;18.10;71.04
40059;SHT31;25763;49.972;8.568;2023-07-31T04:41:52;18.09;71.01
40059;SHT31;25763;49.972;8.568;2023-07-31T04:44:18;18.12;71.20
40059;SHT31;25763;49.972;8.568;2023-07-31T04:46:43;18.14;71.04
40059;SHT31;25763;49.972;8.568;2023-07-31T04:49:08;18.14;71.48
40059;SHT31;25763;49.972;8.568;2023-07-31T04:51:34;18.05;70.76
40059;SHT31;25763;49.972;8.568;2023-07-31T04:53:59;18.09;70.98
40059;SHT31;25763;49.972;8.568;2023-07-31T04:56:24;18.10;70.81
40059;SHT31;25763;49.972;8.568;2023-07-31T04:58:50;18.20;70.83
40059;SHT31;25763;49.972;8.568;2023-07-31T05:01:15;18.18;70.25
40059;SHT31;25763;49.972;8.568;2023-07-31T05:03:40;18.17;70.00
40059;SHT31;25763;49.972;8.568;2023-07-31T05:06:06;18.17;69.74
40059;SHT31;25763;49.972;8.568;2023-07-31T05:08:31;18.20;70.27
40059;SHT31;25763;49.972;8.568;2023-07-31T05:10:56;18.18;70.03
40059;SHT31;25763;49.972;8.568;2023-07-31T05:13:22;18.24;70.21
40059;SHT31;25763;49.972;8.568;2023-07-31T05:15:47;18.18;69.83
40059;SHT31;25763;49.972;8.568;2023-07-31T05:18:14;18.24;70.61
40059;SHT31;25763;49.972;8.568;2023-07-31T05:20:40;18.24;70.02
40059;SHT31;25763;49.972;8.568;2023-07-31T05:23:05;18.24;70.42
40059;SHT31;25763;49.972;8.568;2023-07-31T05:25:30;18.27;70.08
40059;SHT31;25763;49.972;8.568;2023-07-31T05:27:56;18.24;70.49
40059;SHT31;25763;49.972;8.568;2023-07-31T05:30:21;18.26;69.92
40059;SHT31;25763;49.972;8.568;2023-07-31T05:32:47;18.20;69.88
40059;SHT31;25763;49.972;8.568;2023-07-31T05:35:12;18.27;70.45
40059;SHT31;25763;49.972;8.568;2023-07-31T05:37:37;18.24;70.10
40059;SHT31;25763;49.972;8.568;2023-07-31T05:40:03;18.26;70.54
40059;SHT31;25763;49.972;8.568;2023-07-31T05:42:29;18.24;70.40
40059;SHT31;25763;49.972;8.568;2023-07-31T05:44:54;18.30;70.73
40059;SHT31;25763;49.972;8.568;2023-07-31T05:47:19;18.23;70.50
40059;SHT31;25763;49.972;8.568;2023-07-31T05:49:45;18.28;70.59
40059;SHT31;25763;49.972;8.568;2023-07-31T05:52:10;18.28;70.40
40059;SHT31;25763;49.972;8.568;2023-07-31T05:54:35;18.33;70.26
40059;SHT31;25763;49.972;8.568;2023-07-31T05:57:01;18.38;70.48
40059;SHT31;25763;49.972;8.568;2023-07-31T05:59:26;18.40;70.02
40059;SHT31;25763;49.972;8.568;2023-07-31T06:01:52;18.48;70.14
40059;SHT31;25763;49.972;8.568;2023-07-31T06:04:18;18.51;69.92
40059;SHT31;25763;49.972;8.568;2023-07-31T06:06:43;18.62;70.12
40059;SHT31;25763;49.972;8.568;2023-07-31T06:09:08;18.75;69.89
40059;SHT31;25763;49.972;8.568;2023-07-31T06:11:34;18.87;69.02
40059;SHT31;25763;49.972;8.568;2023-07-31T06:13:59;19.02;68.72
40059;SHT31;25763;49.972;8.568;2023-07-31T06:16:25;19.14;69.01
40059;SHT31;25763;49.972;8.568;2023-07-31T06:18:52;19.18;68.22
40059;SHT31;25763;49.972;8.568;2023-07-31T06:21:17;19.14;67.74
40059;SHT31;25763;49.972;8.568;2023-07-31T06:23:43;19.21;67.63
40059;SHT31;25763;49.972;8.568;2023-07-31T06:26:08;19.15;67.23
40059;SHT31;25763;49.972;8.568;2023-07-31T06:28:34;19.11;67.69
40059;SHT31;25763;49.972;8.568;2023-07-31T06:31:00;19.37;68.35
40059;SHT31;25763;49.972;8.568;2023-07-31T06:33:27;19.49;67.67
40059;SHT31;25763;49.972;8.568;2023-07-31T06:35:52;19.65;67.36
40059;SHT31;25763;49.972;8.568;2023-07-31T06:38:22;19.66;66.56
40059;SHT31;25763;49.972;8.568;2023-07-31T06:40:49;19.76;67.35
40059;SHT31;25763;49.972;8.568;2023-07-31T06:43:14;19.81;66.56
40059;SHT31;25763;49.972;8.568;2023-07-31T06:45:40;19.84;66.73
40059;SHT31;25763;49.972;8.568;2023-07-31T06:48:06;19.73;67.49
40059;SHT31;25763;49.972;8.568;2023-07-31T06:50:31;19.59;66.90
40059;SHT31;25763;49.972;8.568;2023-07-31T06:52:57;19.56;67.11
40059;SHT31;25763;49.972;8.568;2023-07-31T06:55:23;19.73;67.21
40059;SHT31;25763;49.972;8.568;2023-07-31T06:57:51;19.76;65.70
40059;SHT31;25763;49.972;8.568;2023-07-31T07:00:18;19.77;66.43
40059;SHT31;25763;49.972;8.568;2023-07-31T07:02:44;19.67;66.66
40059;SHT31;25763;49.972;8.568;2023-07-31T07:05:09;19.69;67.59
40059;SHT31;25763;49.972;8.568;2023-07-31T07:07:35;19.86;68.12
40059;SHT31;25763;49.972;8.568;2023-07-31T07:10:01;19.90;66.54
40059;SHT31;25763;49.972;8.568;2023-07-31T07:12:30;20.10;67.10
40059;SHT31;25763;49.972;8.568;2023-07-31T07:14:56;20.24;66.88
40059;SHT31;25763;49.972;8.568;2023-07-31T07:17:23;20.40;66.83
40059;SHT31;25763;49.972;8.568;2023-07-31T07:19:48;20.47;66.11
40059;SHT31;25763;49.972;8.568;2023-07-31T07:22:14;20.55;66.08
40059;SHT31;25763;49.972;8.568;2023-07-31T07:24:39;20.64;66.39
40059;SHT31;25763;49.972;8.568;2023-07-31T07:27:05;20.63;64.73
40059;SHT31;25763;49.972;8.568;2023-07-31T07:29:30;20.74;64.77
40059;SHT31;25763;49.972;8.568;2023-07-31T07:31:56;21.26;65.95
40059;SHT31;25763;49.972;8.568;2023-07-31T07:34:28;21.33;64.37
40059;SHT31;25763;49.972;8.568;2023-07-31T07:36:54;21.51;64.51
40059;SHT31;25763;49.972;8.568;2023-07-31T07:39:20;21.63;64.02
40059;SHT31;25763;49.972;8.568;2023-07-31T07:41:48;21.49;63.70
40059;SHT31;25763;49.972;8.568;2023-07-31T07:44:14;21.24;62.91
40059;SHT31;25763;49.972;8.568;2023-07-31T07:46:40;21.04;63.88
40059;SHT31;25763;49.972;8.568;2023-07-31T07:49:05;21.14;63.76
40059;SHT31;25763;49.972;8.568;2023-07-31T07:51:30;21.09;63.61
40059;SHT31;25763;49.972;8.568;2023-07-31T07:53:57;20.91;64.06
40059;SHT31;25763;49.972;8.568;2023-07-31T07:56:23;20.92;64.67
40059;SHT31;25763;49.972;8.568;2023-07-31T07:58:49;21.30;63.98
40059;SHT31;25763;49.972;8.568;2023-07-31T08:01:15;21.67;63.60
40059;SHT31;25763;49.972;8.568;2023-07-31T08:03:41;21.87;61.97
40059;SHT31;25763;49.972;8.568;2023-07-31T08:06:06;21.77;62.70
40059;SHT31;25763;49.972;8.568;2023-07-31T08:08:34;21.87;62.83
40059;SHT31;25763;49.972;8.568;2023-07-31T08:10:59;21.54;61.97
40059;SHT31;25763;49.972;8.568;2023-07-31T08:13:25;21.28;62.49
40059;SHT31;25763;49.972;8.568;2023-07-31T08:15:50;21.29;63.57
40059;SHT31;25763;49.972;8.568;2023-07-31T08:18:15;21.24;64.42
40059;SHT31;25763;49.972;8.568;2023-07-31T08:20:42;21.30;63.44
40059;SHT31;25763;49.972;8.568;2023-07-31T08:23:07;21.18;63.93
40059;SHT31;25763;49.972;8.568;2023-07-31T08:25:35;21.14;64.45
40059;SHT31;25763;49.972;8.568;2023-07-31T08:28:01;21.14;64.58
40059;SHT31;25763;49.972;8.568;2023-07-31T08:30:26;21.19;65.07
40059;SHT31;25763;49.972;8.568;2023-07-31T08:32:52;21.24;64.21
40059;SHT31;25763;49.972;8.568;2023-07-31T08:35:17;21.38;63.81
40059;SHT31;25763;49.972;8.568;2023-07-31T08:37:43;21.50;64.13
40059;SHT31;25763;49.972;8.568;2023-07-31T08:40:09;21.70;63.67
40059;SHT31;25763;49.972;8.568;2023-07-31T08:42:43;22.01;63.08
40059;SHT31;25763;49.972;8.568;2023-07-31T08:45:09;22.01;63.03
40059;SHT31;25763;49.972;8.568;2023-07-31T08:47:34;21.97;62.75
40059;SHT31;25763;49.972;8.568;2023-07-31T08:50:00;22.01;63.15
40059;SHT31;25763;49.972;8.568;2023-07-31T08:52:27;21.99;62.84
40059;SHT31;25763;49.972;8.568;2023-07-31T08:54:53;21.99;62.79
40059;SHT31;25763;49.972;8.568;2023-07-31T08:57:19;22.15;62.49
40059;SHT31;25763;49.972;8.568;2023-07-31T08:59:45;22.24;62.49
40059;SHT31;25763;49.972;8.568;2023-07-31T09:02:11;22.30;62.03
40059;SHT31;25763;49.972;8.568;2023-07-31T09:04:40;22.36;63.60
40059;SHT31;25763;49.972;8.568;2023-07-31T09:07:05;22.33;63.43
40059;SHT31;25763;49.972;8.568;2023-07-31T09:09:31;22.29;63.55
40059;SHT31;25763;49.972;8.568;2023-07-31T09:11:57;22.12;64.54
40059;SHT31;25763;49.972;8.568;2023-07-31T09:14:25;21.97;66.23
40059;SHT31;25763;49.972;8.568;2023-07-31T09:16:54;21.88;66.85
40059;SHT31;25763;49.972;8.568;2023-07-31T09:19:33;21.77;66.23
40059;SHT31;25763;49.972;8.568;2023-07-31T09:21:59;21.70;67.12
40059;SHT31;25763;49.972;8.568;2023-07-31T09:24:32;21.87;68.06
40059;SHT31;25763;49.972;8.568;2023-07-31T09:26:59;21.87;67.95
40059;SHT31;25763;49.972;8.568;2023-07-31T09:29:26;22.10;67.39
40059;SHT31;25763;49.972;8.568;2023-07-31T09:31:53;22.41;67.45
40059;SHT31;25763;49.972;8.568;2023-07-31T09:34:19;22.39;65.06
40059;SHT31;25763;49.972;8.568;2023-07-31T09:36:46;22.75;66.04
40059;SHT31;25763;49.972;8.568;2023-07-31T09:39:13;22.83;63.35
40059;SHT31;25763;49.972;8.568;2023-07-31T09:41:44;22.95;62.41
40059;SHT31;25763;49.972;8.568;2023-07-31T09:44:10;22.67;63.65
40059;SHT31;25763;49.972;8.568;2023-07-31T09:46:36;22.33;62.18
40059;SHT31;25763;49.972;8.568;2023-07-31T09:49:13;22.08;61.58
40059;SHT31;25763;49.972;8.568;2023-07-31T09:51:41;22.17;63.49
40059;SHT31;25763;49.972;8.568;2023-07-31T09:54:16;22.29;64.29
40059;SHT31;25763;49.972;8.568;2023-07-31T09:56:48;22.15;64.08
40059;SHT31;25763;49.972;8.568;2023-07-31T09:59:16;22.26;64.01
40059;SHT31;25763;49.972;8.568;2023-07-31T10:01:42;22.16;61.84
40059;SHT31;25763;49.972;8.568;2023-07-31T10:04:09;22.32;63.02
40059;SHT31;25763;49.972;8.568;2023-07-31T10:06:36;22.15;60.27
40059;SHT31;25763;49.972;8.568;2023-07-31T10:09:04;22.16;60.95
40059;SHT31;25763;49.972;8.568;2023-07-31T10:11:35;22.24;61.81
40059;SHT31;25763;49.972;8.568;2023-07-31T10:14:03;22.17;61.22
40059;SHT31;25763;49.972;8.568;2023-07-31T10:16:30;22.20;62.36
40059;SHT31;25763;49.972;8.568;2023-07-31T10:18:56;22.27;61.73
40059;SHT31;25763;49.972;8.568;2023-07-31T10:21:22;22.47;61.31
40059;SHT31;25763;49.972;8.568;2023-07-31T10:23:47;22.57;59.17
40059;SHT31;25763;49.972;8.568;2023-07-31T10:26:17;22.65;59.16
40059;SHT31;25763;49.972;8.568;2023-07-31T10:28:45;22.65;60.33
40059;SHT31;25763;49.972;8.568;2023-07-31T10:31:12;22.65;58.56
40059;SHT31;25763;49.972;8.568;2023-07-31T10:33:40;22.88;59.53
40059;SHT31;25763;49.972;8.568;2023-07-31T10:36:19;23.23;61.21
40059;SHT31;25763;49.972;8.568;2023-07-31T10:38:45;23.48;59.64
40059;SHT31;25763;49.972;8.568;2023-07-31T10:41:10;23.55;59.16
40059;SHT31;25763;49.972;8.568;2023-07-31T10:43:39;23.68;58.76
40059;SHT31;25763;49.972;8.568;2023-07-31T10:46:12;23.52;56.82
40059;SHT31;25763;49.972;8.568;2023-07-31T10:48:39;23.51;56.73
40059;SHT31;25763;49.972;8.568;2023-07-31T10:51:08;23.89;58.81
40059;SHT31;25763;49.972;8.568;2023-07-31T10:53:35;23.85;55.44
40059;SHT31;25763;49.972;8.568;2023-07-31T10:56:06;23.65;57.85
40059;SHT31;25763;49.972;8.568;2023-07-31T10:58:32;23.41;56.55
40059;SHT31;25763;49.972;8.568;2023-07-31T11:01:00;23.30;57.33
40059;SHT31;25763;49.972;8.568;2023-07-31T11:03:41;23.38;58.26
40059;SHT31;25763;49.972;8.568;2023-07-31T11:06:09;23.28;57.77
40059;SHT31;25763;49.972;8.568;2023-07-31T11:08:40;23.20;56.59
40059;SHT31;25763;49.972;8.568;2023-07-31T11:11:08;22.98;57.70
40059;SHT31;25763;49.972;8.568;2023-07-31T11:13:40;22.98;58.94
40059;SHT31;25763;49.972;8.568;2023-07-31T11:16:06;23.13;58.19
40059;SHT31;25763;49.972;8.568;2023-07-31T11:18:31;23.16;58.08
40059;SHT31;25763;49.972;8.568;2023-07-31T11:20:57;23.00;57.20
40059;SHT31;25763;49.972;8.568;2023-07-31T11:23:22;23.13;57.84
40059;SHT31;25763;49.972;8.568;2023-07-31T11:25:49;23.24;57.93
40059;SHT31;25763;49.972;8.568;2023-07-31T11:28:16;23.38;58.00
40059;SHT31;25763;49.972;8.568;2023-07-31T11:30:43;23.72;55.95
40059;SHT31;25763;49.972;8.568;2023-07-31T11:33:10;23.65;55.87
40059;SHT31;25763;49.972;8.568;2023-07-31T11:35:42;23.75;57.56
40059;SHT31;25763;49.972;8.568;2023-07-31T11:38:08;23.58;56.73
40059;SHT31;25763;49.972;8.568;2023-07-31T11:40:44;23.48;57.90
40059;SHT31;25763;49.972;8.568;2023-07-31T11:43:09;23.38;57.52
40059;SHT31;25763;49.972;8.568;2023-07-31T11:45:37;23.28;57.74
40059;SHT31;25763;49.972;8.568;2023-07-31T11:48:03;23.12;57.78
40059;SHT31;25763;49.972;8.568;2023-07-31T11:50:35;23.00;58.97
40059;SHT31;25763;49.972;8.568;2023-07-31T11:53:07;22.89;58.87
40059;SHT31;25763;49.972;8.568;2023-07-31T11:55:33;22.91;59.07
40059;SHT31;25763;49.972;8.568;2023-07-31T11:57:59;22.98;58.45
40059;SHT31;25763;49.972;8.568;2023-07-31T12:00:25;23.07;58.58
40059;SHT31;25763;49.972;8.568;2023-07-31T12:02:52;23.04;58.36
40059;SHT31;25763;49.972;8.568;2023-07-31T12:05:18;23.13;58.90
40059;SHT31;25763;49.972;8.568;2023-07-31T12:10:27;23.17;58.70
40059;SHT31;25763;49.972;8.568;2023-07-31T12:13:07;23.07;58.36
40059;SHT31;25763;49.972;8.568;2023-07-31T12:15:40;23.12;57.83
40059;SHT31;25763;49.972;8.568;2023-07-31T12:18:19;23.16;60.31
40059;SHT31;25763;49.972;8.568;2023-07-31T12:20:49;23.00;58.83
40059;SHT31;25763;49.972;8.568;2023-07-31T12:23:20;22.85;59.38
40059;SHT31;25763;49.972;8.568;2023-07-31T12:26:14;22.76;59.50
40059;SHT31;25763;49.972;8.568;2023-07-31T12:31:20;22.64;61.10
40059;SHT31;25763;49.972;8.568;2023-07-31T12:33:49;22.56;60.46
40059;SHT31;25763;49.972;8.568;2023-07-31T12:36:24;22.53;61.01
40059;SHT31;25763;49.972;8.568;2023-07-31T12:38:50;22.45;60.99
40059;SHT31;25763;49.972;8.568;2023-07-31T12:41:17;22.47;60.43
40059;SHT31;25763;49.972;8.568;2023-07-31T12:43:44;22.49;59.38
40059;SHT31;25763;49.972;8.568;2023-07-31T12:46:09;22.56;60.23
40059;SHT31;25763;49.972;8.568;2023-07-31T12:48:36;22.67;60.18
40059;SHT31;25763;49.972;8.568;2023-07-31T12:51:02;22.76;60.03
40059;SHT31;25763;49.972;8.568;2023-07-31T12:53:28;22.95;59.97
40059;SHT31;25763;49.972;8.568;2023-07-31T12:55:55;22.98;58.19
40059;SHT31;25763;49.972;8.568;2023-07-31T12:58:21;23.03;58.32
40059;SHT31;25763;49.972;8.568;2023-07-31T13:00:46;23.07;57.55
40059;SHT31;25763;49.972;8.568;2023-07-31T13:03:12;23.17;57.75
40059;SHT31;25763;49.972;8.568;2023-07-31T13:05:37;23.23;58.57
40059;SHT31;25763;49.972;8.568;2023-07-31T13:08:03;23.34;57.42
40059;SHT31;25763;49.972;8.568;2023-07-31T13:10:28;23.47;59.08
40059;SHT31;25763;49.972;8.568;2023-07-31T13:12:55;23.54;58.41
40059;SHT31;25763;49.972;8.568;2023-07-31T13:15:20;23.59;59.48
40059;SHT31;25763;49.972;8.568;2023-07-31T13:17:46;23.61;57.79
40059;SHT31;25763;49.972;8.568;2023-07-31T13:20:12;23.52;57.73
40059;SHT31;25763;49.972;8.568;2023-07-31T13:22:37;23.35;58.72
40059;SHT31;25763;49.972;8.568;2023-07-31T13:25:03;23.22;57.84
40059;SHT31;25763;49.972;8.568;2023-07-31T13:27:28;23.15;59.06
40059;SHT31;25763;49.972;8.568;2023-07-31T13:29:54;23.19;59.31
40059;SHT31;25763;49.972;8.568;2023-07-31T13:32:20;23.23;58.56
40059;SHT31;25763;49.972;8.568;2023-07-31T13:34:47;23.27;58.57
40059;SHT31;25763;49.972;8.568;2023-07-31T13:37:12;23.23;58.55
40059;SHT31;25763;49.972;8.568;2023-07-31T13:39:38;23.30;58.32
40059;SHT31;25763;49.972;8.568;2023-07-31T13:42:04;23.22;57.59
40059;SHT31;25763;49.972;8.568;2023-07-31T13:44:33;23.19;59.11
40059;SHT31;25763;49.972;8.568;2023-07-31T13:46:59;23.19;59.34
40059;SHT31;25763;49.972;8.568;2023-07-31T13:49:25;23.02;59.37
40059;SHT31;25763;49.972;8.568;2023-07-31T13:51:50;22.95;59.29
40059;SHT31;25763;49.972;8.568;2023-07-31T13:54:16;22.95;59.83
40059;SHT31;25763;49.972;8.568;2023-07-31T13:56:42;22.98;59.09
40059;SHT31;25763;49.972;8.568;2023-07-31T13:59:08;23.07;59.68
40059;SHT31;25763;49.972;8.568;2023-07-31T14:01:33;23.04;58.39
40059;SHT31;25763;49.972;8.568;2023-07-31T14:03:58;23.12;58.42
40059;SHT31;25763;49.972;8.568;2023-07-31T14:06:24;23.16;58.96
40059;SHT31;25763;49.972;8.568;2023-07-31T14:08:49;23.06;58.64
40059;SHT31;25763;49.972;8.568;2023-07-31T14:11:14;22.98;58.91
40059;SHT31;25763;49.972;8.568;2023-07-31T14:13:40;22.89;59.18
40059;SHT31;25763;49.972;8.568;2023-07-31T14:16:05;22.83;60.13
40059;SHT31;25763;49.972;8.568;2023-07-31T14:18:31;22.82;60.71
40059;SHT31;25763;49.972;8.568;2023-07-31T14:20:57;22.76;61.25
40059;SHT31;25763;49.972;8.568;2023-07-31T14:23:22;22.69;60.37
40059;SHT31;25763;49.972;8.568;2023-07-31T14:25:48;22.71;61.08
40059;SHT31;25763;49.972;8.568;2023-07-31T14:28:13;22.63;60.43
40059;SHT31;25763;49.972;8.568;2023-07-31T14:30:42;22.61;61.19
40059;SHT31;25763;49.972;8.568;2023-07-31T14:33:07;22.51;60.61
40059;SHT31;25763;49.972;8.568;2023-07-31T14:35:34;22.57;61.20
40059;SHT31;25763;49.972;8.568;2023-07-31T14:37:59;22.50;61.22
40059;SHT31;25763;49.972;8.568;2023-07-31T14:40:25;22.56;61.37
40059;SHT31;25763;49.972;8.568;2023-07-31T14:42:50;22.54;60.95
40059;SHT31;25763;49.972;8.568;2023-07-31T14:45:16;22.60;61.18
40059;SHT31;25763;49.972;8.568;2023-07-31T14:47:41;22.67;61.15
40059;SHT31;25763;49.972;8.568;2023-07-31T14:50:06;22.63;60.40
40059;SHT31;25763;49.972;8.568;2023-07-31T14:52:32;22.57;60.23
40059;SHT31;25763;49.972;8.568;2023-07-31T14:54:58;22.58;61.48
40059;SHT31;25763;49.972;8.568;2023-07-31T14:57:23;22.54;60.42
40059;SHT31;25763;49.972;8.568;2023-07-31T14:59:49;22.49;60.56
40059;SHT31;25763;49.972;8.568;2023-07-31T15:02:17;22.49;60.19
40059;SHT31;25763;49.972;8.568;2023-07-31T15:04:42;22.41;60.55
40059;SHT31;25763;49.972;8.568;2023-07-31T15:07:08;22.37;60.39
40059;SHT31;25763;49.972;8.568;2023-07-31T15:09:33;22.34;61.63
40059;SHT31;25763;49.972;8.568;2023-07-31T15:11:59;22.26;61.15
40059;SHT31;25763;49.972;8.568;2023-07-31T15:14:25;22.29;62.06
40059;SHT31;25763;49.972;8.568;2023-07-31T15:16:50;22.33;62.57
40059;SHT31;25763;49.972;8.568;2023-07-31T15:19:16;22.29;60.54
40059;SHT31;25763;49.972;8.568;2023-07-31T15:21:41;22.27;61.23
40059;SHT31;25763;49.972;8.568;2023-07-31T15:24:07;22.24;61.53
40059;SHT31;25763;49.972;8.568;2023-07-31T15:26:33;22.23;61.68
40059;SHT31;25763;49.972;8.568;2023-07-31T15:29:03;22.24;62.23
40059;SHT31;25763;49.972;8.568;2023-07-31T15:31:31;22.23;61.77
40059;SHT31;25763;49.972;8.568;2023-07-31T15:33:56;22.16;59.35
40059;SHT31;25763;49.972;8.568;2023-07-31T15:36:22;22.13;59.59